sensor_id;sensor_type;location;lat;lon;timestamp;P1;durP1;ratioP1;P2;durP2;ratioP2
5491;SDS011;2768;53.540;10.224;2023-07-13T00:00:22;3.83;;;2.13;;
5491;SDS011;2768;53.540;10.224;2023-07-13T00:06:16;3.10;;;1.97;;
5491;SDS011;2768;53.540;10.224;2023-07-13T00:12:22;4.37;;;2.10;;
5491;SDS011;2768;53.540;10.224;2023-07-13T00:18:17;6.07;;;2.40;;
5491;SDS011;2768;53.540;10.224;2023-07-13T00:24:12;2.00;;;1.80;;
5491;SDS011;2768;53.540;10.224;2023-07-13T00:30:17;3.53;;;1.90;;
5491;SDS011;2768;53.540;10.224;2023-07-13T00:36:10;5.03;;;2.23;;
5491;SDS011;2768;53.540;10.224;2023-07-13T00:42:05;3.30;;;2.10;;
5491;SDS011;2768;53.540;10.224;2023-07-13T00:48:00;5.77;;;2.53;;
5491;SDS011;2768;53.540;10.224;2023-07-13T00:53:54;3.87;;;2.13;;
5491;SDS011;2768;53.540;10.224;2023-07-13T00:59:54;3.70;;;2.40;;
5491;SDS011;2768;53.540;10.224;2023-07-13T01:05:52;3.23;;;2.30;;
5491;SDS011;2768;53.540;10.224;2023-07-13T01:11:46;3.70;;;2.77;;
5491;SDS011;2768;53.540;10.224;2023-07-13T01:17:41;5.67;;;2.50;;
5491;SDS011;2768;53.540;10.224;2023-07-13T01:23:36;3.13;;;2.23;;
5491;SDS011;2768;53.540;10.224;2023-07-13T01:29:30;2.83;;;2.50;;
5491;SDS011;2768;53.540;10.224;2023-07-13T01:35:24;8.23;;;4.27;;
5491;SDS011;2768;53.540;10.224;2023-07-13T01:41:20;3.73;;;2.70;;
5491;SDS011;2768;53.540;10.224;2023-07-13T01:47:13;4.30;;;2.43;;
5491;SDS011;2768;53.540;10.224;2023-07-13T01:53:07;4.13;;;2.73;;
5491;SDS011;2768;53.540;10.224;2023-07-13T01:59:02;2.63;;;2.43;;
5491;SDS011;2768;53.540;10.224;2023-07-13T02:04:56;4.80;;;3.30;;
5491;SDS011;2768;53.540;10.224;2023-07-13T02:10:49;4.20;;;3.00;;
5491;SDS011;2768;53.540;10.224;2023-07-13T02:16:44;5.20;;;3.40;;
5491;SDS011;2768;53.540;10.224;2023-07-13T02:22:38;4.60;;;3.13;;
5491;SDS011;2768;53.540;10.224;2023-07-13T02:28:31;4.37;;;3.23;;
5491;SDS011;2768;53.540;10.224;2023-07-13T02:34:26;5.57;;;3.27;;
5491;SDS011;2768;53.540;10.224;2023-07-13T02:40:23;4.10;;;3.53;;
5491;SDS011;2768;53.540;10.224;2023-07-13T02:46:17;7.30;;;4.20;;
5491;SDS011;2768;53.540;10.224;2023-07-13T02:52:12;3.80;;;3.27;;
5491;SDS011;2768;53.540;10.224;2023-07-13T02:58:06;4.40;;;3.53;;
5491;SDS011;2768;53.540;10.224;2023-07-13T03:04:00;4.67;;;3.60;;
5491;SDS011;2768;53.540;10.224;2023-07-13T03:09:57;7.63;;;3.70;;
5491;SDS011;2768;53.540;10.224;2023-07-13T03:16:01;5.93;;;3.60;;
5491;SDS011;2768;53.540;10.224;2023-07-13T03:21:55;4.23;;;3.73;;
5491;SDS011;2768;53.540;10.224;2023-07-13T03:27:50;4.80;;;4.17;;
5491;SDS011;2768;53.540;10.224;2023-07-13T03:33:45;5.10;;;3.70;;
5491;SDS011;2768;53.540;10.224;2023-07-13T03:39:40;5.43;;;3.90;;
5491;SDS011;2768;53.540;10.224;2023-07-13T03:45:38;4.50;;;3.40;;
5491;SDS011;2768;53.540;10.224;2023-07-13T03:51:31;4.27;;;3.87;;
5491;SDS011;2768;53.540;10.224;2023-07-13T03:57:25;7.80;;;4.23;;
5491;SDS011;2768;53.540;10.224;2023-07-13T04:03:22;4.63;;;4.10;;
5491;SDS011;2768;53.540;10.224;2023-07-13T04:09:16;6.37;;;3.90;;
5491;SDS011;2768;53.540;10.224;2023-07-13T04:15:10;6.67;;;4.13;;
5491;SDS011;2768;53.540;10.224;2023-07-13T04:21:04;4.90;;;4.30;;
5491;SDS011;2768;53.540;10.224;2023-07-13T04:26:58;4.80;;;3.70;;
5491;SDS011;2768;53.540;10.224;2023-07-13T04:32:53;4.70;;;3.80;;
5491;SDS011;2768;53.540;10.224;2023-07-13T04:38:49;5.13;;;3.53;;
5491;SDS011;2768;53.540;10.224;2023-07-13T04:44:46;4.20;;;3.77;;
5491;SDS011;2768;53.540;10.224;2023-07-13T04:50:41;8.23;;;4.20;;
5491;SDS011;2768;53.540;10.224;2023-07-13T04:56:36;7.57;;;3.83;;
5491;SDS011;2768;53.540;10.224;2023-07-13T05:02:30;9.63;;;4.00;;
5491;SDS011;2768;53.540;10.224;2023-07-13T05:08:24;5.13;;;4.00;;
5491;SDS011;2768;53.540;10.224;2023-07-13T05:57:37;7.60;;;3.70;;
5491;SDS011;2768;53.540;10.224;2023-07-13T06:03:30;10.50;;;4.07;;
5491;SDS011;2768;53.540;10.224;2023-07-13T06:09:24;9.80;;;3.37;;
5491;SDS011;2768;53.540;10.224;2023-07-13T06:15:18;8.37;;;4.17;;
5491;SDS011;2768;53.540;10.224;2023-07-13T06:21:12;13.80;;;4.03;;
5491;SDS011;2768;53.540;10.224;2023-07-13T06:27:07;9.40;;;3.80;;
5491;SDS011;2768;53.540;10.224;2023-07-13T06:33:02;8.60;;;3.40;;
5491;SDS011;2768;53.540;10.224;2023-07-13T06:38:56;9.40;;;3.27;;
5491;SDS011;2768;53.540;10.224;2023-07-13T06:44:49;5.80;;;3.27;;
5491;SDS011;2768;53.540;10.224;2023-07-13T06:50:44;8.77;;;3.30;;
5491;SDS011;2768;53.540;10.224;2023-07-13T06:56:38;8.73;;;3.90;;
5491;SDS011;2768;53.540;10.224;2023-07-13T07:02:31;8.00;;;3.50;;
5491;SDS011;2768;53.540;10.224;2023-07-13T07:08:26;10.30;;;3.40;;
5491;SDS011;2768;53.540;10.224;2023-07-13T07:14:19;7.70;;;3.20;;
5491;SDS011;2768;53.540;10.224;2023-07-13T07:20:12;10.47;;;3.40;;
5491;SDS011;2768;53.540;10.224;2023-07-13T07:26:07;12.10;;;2.93;;
5491;SDS011;2768;53.540;10.224;2023-07-13T07:32:02;8.30;;;3.43;;
5491;SDS011;2768;53.540;10.224;2023-07-13T07:38:15;8.00;;;3.30;;
5491;SDS011;2768;53.540;10.224;2023-07-13T07:44:10;10.60;;;4.07;;
5491;SDS011;2768;53.540;10.224;2023-07-13T07:50:04;6.77;;;2.80;;
5491;SDS011;2768;53.540;10.224;2023-07-13T07:55:58;8.83;;;3.40;;
5491;SDS011;2768;53.540;10.224;2023-07-13T08:02:13;15.53;;;3.90;;
5491;SDS011;2768;53.540;10.224;2023-07-13T08:08:27;9.50;;;3.27;;
5491;SDS011;2768;53.540;10.224;2023-07-13T08:14:20;6.03;;;2.83;;
5491;SDS011;2768;53.540;10.224;2023-07-13T08:20:15;4.27;;;2.60;;
5491;SDS011;2768;53.540;10.224;2023-07-13T08:26:09;12.57;;;3.20;;
5491;SDS011;2768;53.540;10.224;2023-07-13T08:32:02;7.83;;;3.17;;
5491;SDS011;2768;53.540;10.224;2023-07-13T08:37:59;6.90;;;2.70;;
5491;SDS011;2768;53.540;10.224;2023-07-13T08:43:54;7.60;;;2.70;;
5491;SDS011;2768;53.540;10.224;2023-07-13T08:49:51;8.33;;;2.87;;
5491;SDS011;2768;53.540;10.224;2023-07-13T08:55:49;6.20;;;2.53;;
5491;SDS011;2768;53.540;10.224;2023-07-13T09:01:58;11.63;;;3.13;;
5491;SDS011;2768;53.540;10.224;2023-07-13T09:08:26;6.50;;;2.23;;
5491;SDS011;2768;53.540;10.224;2023-07-13T09:14:36;5.47;;;2.83;;
5491;SDS011;2768;53.540;10.224;2023-07-13T09:20:35;5.40;;;2.43;;
5491;SDS011;2768;53.540;10.224;2023-07-13T09:26:34;6.10;;;2.70;;
5491;SDS011;2768;53.540;10.224;2023-07-13T09:32:31;6.90;;;2.93;;
5491;SDS011;2768;53.540;10.224;2023-07-13T09:38:27;6.97;;;3.03;;
5491;SDS011;2768;53.540;10.224;2023-07-13T09:44:27;9.30;;;3.47;;
5491;SDS011;2768;53.540;10.224;2023-07-13T09:50:24;9.20;;;3.20;;
5491;SDS011;2768;53.540;10.224;2023-07-13T09:56:21;8.87;;;3.60;;
5491;SDS011;2768;53.540;10.224;2023-07-13T10:02:22;5.83;;;3.20;;
5491;SDS011;2768;53.540;10.224;2023-07-13T10:08:21;7.07;;;3.00;;
5491;SDS011;2768;53.540;10.224;2023-07-13T10:14:17;4.20;;;3.00;;
5491;SDS011;2768;53.540;10.224;2023-07-13T10:20:14;5.10;;;2.50;;
5491;SDS011;2768;53.540;10.224;2023-07-13T10:26:12;3.47;;;2.43;;
5491;SDS011;2768;53.540;10.224;2023-07-13T10:32:09;6.70;;;2.83;;
5491;SDS011;2768;53.540;10.224;2023-07-13T10:38:06;5.20;;;2.63;;
5491;SDS011;2768;53.540;10.224;2023-07-13T10:44:04;4.40;;;2.87;;
5491;SDS011;2768;53.540;10.224;2023-07-13T10:50:05;3.97;;;2.30;;
5491;SDS011;2768;53.540;10.224;2023-07-13T10:56:01;7.10;;;2.33;;
5491;SDS011;2768;53.540;10.224;2023-07-13T11:02:00;5.57;;;2.37;;
5491;SDS011;2768;53.540;10.224;2023-07-13T11:08:13;7.07;;;2.37;;
5491;SDS011;2768;53.540;10.224;2023-07-13T11:14:29;2.83;;;2.10;;
5491;SDS011;2768;53.540;10.224;2023-07-13T11:20:35;2.50;;;1.87;;
5491;SDS011;2768;53.540;10.224;2023-07-13T11:26:41;4.67;;;2.13;;
5491;SDS011;2768;53.540;10.224;2023-07-13T11:32:35;3.20;;;2.00;;
5491;SDS011;2768;53.540;10.224;2023-07-13T11:38:32;2.13;;;1.63;;
5491;SDS011;2768;53.540;10.224;2023-07-13T11:44:29;2.63;;;1.43;;
5491;SDS011;2768;53.540;10.224;2023-07-13T11:50:24;5.53;;;1.80;;
5491;SDS011;2768;53.540;10.224;2023-07-13T11:56:18;3.70;;;2.20;;
5491;SDS011;2768;53.540;10.224;2023-07-13T12:02:13;2.10;;;1.80;;
5491;SDS011;2768;53.540;10.224;2023-07-13T12:08:10;3.37;;;1.80;;
5491;SDS011;2768;53.540;10.224;2023-07-13T12:14:16;6.10;;;4.37;;
5491;SDS011;2768;53.540;10.224;2023-07-13T12:20:16;5.07;;;2.83;;
5491;SDS011;2768;53.540;10.224;2023-07-13T12:26:13;5.53;;;2.53;;
5491;SDS011;2768;53.540;10.224;2023-07-13T12:32:09;4.53;;;1.73;;
5491;SDS011;2768;53.540;10.224;2023-07-13T12:38:10;2.40;;;1.20;;
5491;SDS011;2768;53.540;10.224;2023-07-13T12:44:04;4.57;;;2.40;;
5491;SDS011;2768;53.540;10.224;2023-07-13T12:50:03;4.33;;;1.97;;
5491;SDS011;2768;53.540;10.224;2023-07-13T12:55:58;3.47;;;2.00;;
5491;SDS011;2768;53.540;10.224;2023-07-13T13:01:55;4.53;;;2.40;;
5491;SDS011;2768;53.540;10.224;2023-07-13T13:07:50;4.03;;;2.10;;
5491;SDS011;2768;53.540;10.224;2023-07-13T13:13:43;6.60;;;2.17;;
5491;SDS011;2768;53.540;10.224;2023-07-13T13:19:38;4.27;;;2.23;;
5491;SDS011;2768;53.540;10.224;2023-07-13T13:25:33;6.00;;;2.43;;
5491;SDS011;2768;53.540;10.224;2023-07-13T13:31:27;4.33;;;2.70;;
5491;SDS011;2768;53.540;10.224;2023-07-13T13:37:21;4.40;;;2.73;;
5491;SDS011;2768;53.540;10.224;2023-07-13T13:43:18;4.30;;;2.60;;
5491;SDS011;2768;53.540;10.224;2023-07-13T13:49:18;8.40;;;1.97;;
5491;SDS011;2768;53.540;10.224;2023-07-13T13:55:14;3.23;;;2.33;;
5491;SDS011;2768;53.540;10.224;2023-07-13T14:01:14;3.47;;;2.10;;
5491;SDS011;2768;53.540;10.224;2023-07-13T14:07:11;3.10;;;1.80;;
5491;SDS011;2768;53.540;10.224;2023-07-13T14:13:04;2.47;;;2.10;;
5491;SDS011;2768;53.540;10.224;2023-07-13T14:19:01;1.80;;;1.70;;
5491;SDS011;2768;53.540;10.224;2023-07-13T14:24:55;5.87;;;3.30;;
5491;SDS011;2768;53.540;10.224;2023-07-13T14:30:50;2.93;;;2.17;;
5491;SDS011;2768;53.540;10.224;2023-07-13T14:36:47;5.17;;;3.17;;
5491;SDS011;2768;53.540;10.224;2023-07-13T14:42:42;3.30;;;2.60;;
5491;SDS011;2768;53.540;10.224;2023-07-13T14:48:36;4.50;;;2.57;;
5491;SDS011;2768;53.540;10.224;2023-07-13T14:54:30;3.43;;;2.40;;
5491;SDS011;2768;53.540;10.224;2023-07-13T15:00:24;2.60;;;2.40;;
5491;SDS011;2768;53.540;10.224;2023-07-13T15:06:19;2.87;;;1.97;;
5491;SDS011;2768;53.540;10.224;2023-07-13T15:12:14;4.10;;;2.20;;
5491;SDS011;2768;53.540;10.224;2023-07-13T15:18:08;3.47;;;2.40;;
5491;SDS011;2768;53.540;10.224;2023-07-13T15:24:04;5.93;;;2.50;;
5491;SDS011;2768;53.540;10.224;2023-07-13T15:30:01;2.40;;;2.20;;
5491;SDS011;2768;53.540;10.224;2023-07-13T15:35:55;2.70;;;2.10;;
5491;SDS011;2768;53.540;10.224;2023-07-13T15:41:50;2.50;;;2.20;;
5491;SDS011;2768;53.540;10.224;2023-07-13T15:47:47;3.60;;;2.37;;
5491;SDS011;2768;53.540;10.224;2023-07-13T15:53:41;3.33;;;1.90;;
5491;SDS011;2768;53.540;10.224;2023-07-13T15:59:35;2.07;;;1.50;;
5491;SDS011;2768;53.540;10.224;2023-07-13T16:05:30;4.27;;;2.03;;
5491;SDS011;2768;53.540;10.224;2023-07-13T16:11:24;2.40;;;1.87;;
5491;SDS011;2768;53.540;10.224;2023-07-13T16:17:19;3.30;;;2.20;;
5491;SDS011;2768;53.540;10.224;2023-07-13T16:23:15;2.90;;;1.77;;
5491;SDS011;2768;53.540;10.224;2023-07-13T16:29:10;3.57;;;2.37;;
5491;SDS011;2768;53.540;10.224;2023-07-13T16:35:05;1.60;;;1.50;;
5491;SDS011;2768;53.540;10.224;2023-07-13T16:41:01;2.70;;;2.00;;
5491;SDS011;2768;53.540;10.224;2023-07-13T16:46:56;4.00;;;1.80;;
5491;SDS011;2768;53.540;10.224;2023-07-13T16:52:52;2.77;;;1.70;;
5491;SDS011;2768;53.540;10.224;2023-07-13T16:58:47;2.17;;;1.57;;
5491;SDS011;2768;53.540;10.224;2023-07-13T17:04:41;1.40;;;1.27;;
5491;SDS011;2768;53.540;10.224;2023-07-13T17:10:34;2.90;;;1.30;;
5491;SDS011;2768;53.540;10.224;2023-07-13T17:16:29;1.50;;;1.40;;
5491;SDS011;2768;53.540;10.224;2023-07-13T17:22:23;2.80;;;1.17;;
5491;SDS011;2768;53.540;10.224;2023-07-13T17:28:21;2.10;;;1.40;;
5491;SDS011;2768;53.540;10.224;2023-07-13T17:34:16;2.33;;;1.40;;
5491;SDS011;2768;53.540;10.224;2023-07-13T17:40:12;3.67;;;1.60;;
5491;SDS011;2768;53.540;10.224;2023-07-13T17:46:10;3.43;;;1.57;;
5491;SDS011;2768;53.540;10.224;2023-07-13T17:52:08;3.03;;;1.33;;
5491;SDS011;2768;53.540;10.224;2023-07-13T17:58:01;4.50;;;1.30;;
5491;SDS011;2768;53.540;10.224;2023-07-13T18:03:55;1.53;;;1.23;;
5491;SDS011;2768;53.540;10.224;2023-07-13T18:09:53;6.63;;;2.63;;
5491;SDS011;2768;53.540;10.224;2023-07-13T18:15:47;5.00;;;1.63;;
5491;SDS011;2768;53.540;10.224;2023-07-13T18:21:43;4.60;;;2.10;;
5491;SDS011;2768;53.540;10.224;2023-07-13T18:27:38;1.93;;;1.43;;
5491;SDS011;2768;53.540;10.224;2023-07-13T18:33:31;6.23;;;3.00;;
5491;SDS011;2768;53.540;10.224;2023-07-13T18:39:26;2.37;;;2.17;;
5491;SDS011;2768;53.540;10.224;2023-07-13T18:45:21;4.60;;;2.07;;
5491;SDS011;2768;53.540;10.224;2023-07-13T18:51:14;4.83;;;2.50;;
5491;SDS011;2768;53.540;10.224;2023-07-13T18:57:08;3.43;;;1.60;;
5491;SDS011;2768;53.540;10.224;2023-07-13T19:03:03;1.87;;;1.60;;
5491;SDS011;2768;53.540;10.224;2023-07-13T19:08:57;2.30;;;1.47;;
5491;SDS011;2768;53.540;10.224;2023-07-13T19:14:51;3.73;;;1.60;;
5491;SDS011;2768;53.540;10.224;2023-07-13T19:20:48;3.03;;;1.87;;
5491;SDS011;2768;53.540;10.224;2023-07-13T19:26:44;2.87;;;1.87;;
5491;SDS011;2768;53.540;10.224;2023-07-13T19:32:43;1.77;;;1.40;;
5491;SDS011;2768;53.540;10.224;2023-07-13T19:38:39;3.53;;;1.30;;
5491;SDS011;2768;53.540;10.224;2023-07-13T19:44:33;2.20;;;1.57;;
5491;SDS011;2768;53.540;10.224;2023-07-13T19:50:28;3.17;;;1.67;;
5491;SDS011;2768;53.540;10.224;2023-07-13T19:56:23;2.77;;;1.80;;
5491;SDS011;2768;53.540;10.224;2023-07-13T20:02:16;2.37;;;1.70;;
5491;SDS011;2768;53.540;10.224;2023-07-13T20:08:18;4.50;;;2.07;;
5491;SDS011;2768;53.540;10.224;2023-07-13T20:14:18;1.77;;;1.67;;
5491;SDS011;2768;53.540;10.224;2023-07-13T20:20:17;3.30;;;1.77;;
5491;SDS011;2768;53.540;10.224;2023-07-13T20:26:14;4.00;;;2.37;;
5491;SDS011;2768;53.540;10.224;2023-07-13T20:32:11;2.00;;;1.90;;
5491;SDS011;2768;53.540;10.224;2023-07-13T20:38:05;4.43;;;3.00;;
5491;SDS011;2768;53.540;10.224;2023-07-13T20:44:03;4.63;;;2.83;;
5491;SDS011;2768;53.540;10.224;2023-07-13T20:49:58;1.93;;;1.83;;
5491;SDS011;2768;53.540;10.224;2023-07-13T20:55:51;2.30;;;1.40;;
5491;SDS011;2768;53.540;10.224;2023-07-13T21:01:45;2.20;;;2.00;;
5491;SDS011;2768;53.540;10.224;2023-07-13T21:07:40;1.57;;;1.30;;
5491;SDS011;2768;53.540;10.224;2023-07-13T21:13:33;1.60;;;1.50;;
5491;SDS011;2768;53.540;10.224;2023-07-13T21:19:27;2.80;;;1.80;;
5491;SDS011;2768;53.540;10.224;2023-07-13T21:25:22;4.67;;;1.80;;
5491;SDS011;2768;53.540;10.224;2023-07-13T21:31:19;2.40;;;1.57;;
5491;SDS011;2768;53.540;10.224;2023-07-13T21:37:15;3.33;;;1.80;;
5491;SDS011;2768;53.540;10.224;2023-07-13T21:43:13;2.77;;;1.60;;
5491;SDS011;2768;53.540;10.224;2023-07-13T21:49:08;1.70;;;1.60;;
5491;SDS011;2768;53.540;10.224;2023-07-13T21:55:02;1.50;;;1.40;;
5491;SDS011;2768;53.540;10.224;2023-07-13T22:00:57;1.73;;;1.63;;
5491;SDS011;2768;53.540;10.224;2023-07-13T22:06:51;2.20;;;1.80;;
5491;SDS011;2768;53.540;10.224;2023-07-13T22:12:49;1.80;;;1.70;;
5491;SDS011;2768;53.540;10.224;2023-07-13T22:18:44;3.20;;;1.50;;
5491;SDS011;2768;53.540;10.224;2023-07-13T22:24:38;5.00;;;2.20;;
5491;SDS011;2768;53.540;10.224;2023-07-13T22:30:31;8.90;;;2.77;;
5491;SDS011;2768;53.540;10.224;2023-07-13T22:36:26;3.63;;;2.90;;
5491;SDS011;2768;53.540;10.224;2023-07-13T22:42:19;3.13;;;2.67;;
5491;SDS011;2768;53.540;10.224;2023-07-13T22:48:14;4.53;;;2.90;;
5491;SDS011;2768;53.540;10.224;2023-07-13T22:54:10;3.30;;;2.10;;
5491;SDS011;2768;53.540;10.224;2023-07-13T23:00:05;3.80;;;2.60;;
5491;SDS011;2768;53.540;10.224;2023-07-13T23:06:01;2.97;;;2.67;;
5491;SDS011;2768;53.540;10.224;2023-07-13T23:11:57;4.90;;;3.33;;
5491;SDS011;2768;53.540;10.224;2023-07-13T23:17:51;4.10;;;3.10;;
5491;SDS011;2768;53.540;10.224;2023-07-13T23:23:45;7.90;;;3.43;;
5491;SDS011;2768;53.540;10.224;2023-07-13T23:29:39;4.83;;;3.20;;
5491;SDS011;2768;53.540;10.224;2023-07-13T23:35:33;4.30;;;3.00;;
5491;SDS011;2768;53.540;10.224;2023-07-13T23:41:26;6.27;;;4.60;;
5491;SDS011;2768;53.540;10.224;2023-07-13T23:47:22;4.17;;;3.60;;
5491;SDS011;2768;53.540;10.224;2023-07-13T23:53:15;2.97;;;2.67;;
5491;SDS011;2768;53.540;10.224;2023-07-13T23:59:08;3.77;;;3.47;;
